sensor_id;sensor_type;location;lat;lon;timestamp;temperature;humidity
7936;DHT22;4013;49.744;8.118;2022-08-25T00:00:44;21.20;99.90
7936;DHT22;4013;49.744;8.118;2022-08-25T00:03:11;21.20;99.90
7936;DHT22;4013;49.744;8.118;2022-08-25T00:05:39;21.20;99.90
7936;DHT22;4013;49.744;8.118;2022-08-25T00:08:06;21.30;99.90
7936;DHT22;4013;49.744;8.118;2022-08-25T00:10:34;21.30;99.90
7936;DHT22;4013;49.744;8.118;2022-08-25T00:13:03;21.20;99.90
7936;DHT22;4013;49.744;8.118;2022-08-25T00:15:31;21.20;99.90
7936;DHT22;4013;49.744;8.118;2022-08-25T00:17:59;21.00;99.90
7936;DHT22;4013;49.744;8.118;2022-08-25T00:20:27;21.00;99.90
7936;DHT22;4013;49.744;8.118;2022-08-25T00:22:55;21.00;99.90
7936;DHT22;4013;49.744;8.118;2022-08-25T00:25:22;21.00;99.90
7936;DHT22;4013;49.744;8.118;2022-08-25T00:27:50;21.00;99.90
7936;DHT22;4013;49.744;8.118;2022-08-25T00:30:18;21.00;99.90
7936;DHT22;4013;49.744;8.118;2022-08-25T00:32:46;21.00;99.90
7936;DHT22;4013;49.744;8.118;2022-08-25T00:35:13;21.00;99.90
7936;DHT22;4013;49.744;8.118;2022-08-25T00:37:41;21.00;99.90
7936;DHT22;4013;49.744;8.118;2022-08-25T00:40:08;21.00;99.90
7936;DHT22;4013;49.744;8.118;2022-08-25T00:42:36;21.00;99.90
7936;DHT22;4013;49.744;8.118;2022-08-25T00:45:04;21.00;99.90
7936;DHT22;4013;49.744;8.118;2022-08-25T00:47:32;20.90;99.90
7936;DHT22;4013;49.744;8.118;2022-08-25T00:50:00;20.80;99.90
7936;DHT22;4013;49.744;8.118;2022-08-25T00:52:31;20.70;99.90
7936;DHT22;4013;49.744;8.118;2022-08-25T00:55:01;20.50;99.90
7936;DHT22;4013;49.744;8.118;2022-08-25T00:57:32;20.40;99.90
7936;DHT22;4013;49.744;8.118;2022-08-25T01:00:03;20.30;99.90
7936;DHT22;4013;49.744;8.118;2022-08-25T01:02:32;20.30;99.90
7936;DHT22;4013;49.744;8.118;2022-08-25T01:04:59;20.30;99.90
7936;DHT22;4013;49.744;8.118;2022-08-25T01:07:26;20.30;99.90
7936;DHT22;4013;49.744;8.118;2022-08-25T01:09:53;20.20;99.90
7936;DHT22;4013;49.744;8.118;2022-08-25T01:12:20;20.30;99.90
7936;DHT22;4013;49.744;8.118;2022-08-25T01:14:48;20.20;99.90
7936;DHT22;4013;49.744;8.118;2022-08-25T01:17:15;20.20;99.90
7936;DHT22;4013;49.744;8.118;2022-08-25T01:19:43;20.10;99.90
7936;DHT22;4013;49.744;8.118;2022-08-25T01:22:12;20.00;99.90
7936;DHT22;4013;49.744;8.118;2022-08-25T01:24:43;19.90;99.90
7936;DHT22;4013;49.744;8.118;2022-08-25T01:27:12;19.80;99.90
7936;DHT22;4013;49.744;8.118;2022-08-25T01:29:39;19.70;99.90
7936;DHT22;4013;49.744;8.118;2022-08-25T01:32:10;19.70;99.90
7936;DHT22;4013;49.744;8.118;2022-08-25T01:34:42;19.70;99.90
7936;DHT22;4013;49.744;8.118;2022-08-25T01:37:12;19.70;99.90
7936;DHT22;4013;49.744;8.118;2022-08-25T01:39:41;19.70;99.90
7936;DHT22;4013;49.744;8.118;2022-08-25T01:42:23;19.70;99.90
7936;DHT22;4013;49.744;8.118;2022-08-25T01:44:53;19.80;99.90
7936;DHT22;4013;49.744;8.118;2022-08-25T01:47:20;19.70;99.90
7936;DHT22;4013;49.744;8.118;2022-08-25T01:49:48;19.70;99.90
7936;DHT22;4013;49.744;8.118;2022-08-25T01:52:20;19.70;99.90
7936;DHT22;4013;49.744;8.118;2022-08-25T01:54:49;19.70;99.90
7936;DHT22;4013;49.744;8.118;2022-08-25T01:57:16;19.70;99.90
7936;DHT22;4013;49.744;8.118;2022-08-25T01:59:43;19.60;99.90
7936;DHT22;4013;49.744;8.118;2022-08-25T02:02:10;19.60;99.90
7936;DHT22;4013;49.744;8.118;2022-08-25T02:04:37;19.60;99.90
7936;DHT22;4013;49.744;8.118;2022-08-25T02:07:06;19.60;99.90
7936;DHT22;4013;49.744;8.118;2022-08-25T02:09:36;19.80;99.90
7936;DHT22;4013;49.744;8.118;2022-08-25T02:12:03;19.90;99.90
7936;DHT22;4013;49.744;8.118;2022-08-25T02:14:30;19.90;99.90
7936;DHT22;4013;49.744;8.118;2022-08-25T02:16:57;19.90;99.90
7936;DHT22;4013;49.744;8.118;2022-08-25T02:19:24;19.70;99.90
7936;DHT22;4013;49.744;8.118;2022-08-25T02:21:51;19.60;99.90
7936;DHT22;4013;49.744;8.118;2022-08-25T02:24:18;19.50;99.90
7936;DHT22;4013;49.744;8.118;2022-08-25T02:26:47;19.50;99.90
7936;DHT22;4013;49.744;8.118;2022-08-25T02:29:15;19.40;99.90
7936;DHT22;4013;49.744;8.118;2022-08-25T02:31:43;19.30;99.90
7936;DHT22;4013;49.744;8.118;2022-08-25T02:34:10;19.30;99.90
7936;DHT22;4013;49.744;8.118;2022-08-25T02:36:37;19.30;99.90
7936;DHT22;4013;49.744;8.118;2022-08-25T02:39:05;19.10;99.90
7936;DHT22;4013;49.744;8.118;2022-08-25T02:41:33;19.10;99.90
7936;DHT22;4013;49.744;8.118;2022-08-25T02:44:04;19.00;99.90
7936;DHT22;4013;49.744;8.118;2022-08-25T02:46:31;19.00;99.90
7936;DHT22;4013;49.744;8.118;2022-08-25T02:48:58;19.00;99.90
7936;DHT22;4013;49.744;8.118;2022-08-25T02:51:26;19.20;99.90
7936;DHT22;4013;49.744;8.118;2022-08-25T02:53:54;19.20;99.90
7936;DHT22;4013;49.744;8.118;2022-08-25T02:56:22;19.20;99.90
7936;DHT22;4013;49.744;8.118;2022-08-25T02:58:50;19.20;99.90
7936;DHT22;4013;49.744;8.118;2022-08-25T03:01:18;19.30;99.90
7936;DHT22;4013;49.744;8.118;2022-08-25T03:03:46;19.20;99.90
7936;DHT22;4013;49.744;8.118;2022-08-25T03:06:17;19.10;99.90
7936;DHT22;4013;49.744;8.118;2022-08-25T03:08:47;19.10;99.90
7936;DHT22;4013;49.744;8.118;2022-08-25T03:11:14;19.00;99.90
7936;DHT22;4013;49.744;8.118;2022-08-25T03:13:42;18.90;99.90
7936;DHT22;4013;49.744;8.118;2022-08-25T03:16:09;18.90;99.90
7936;DHT22;4013;49.744;8.118;2022-08-25T03:18:38;18.80;99.90
7936;DHT22;4013;49.744;8.118;2022-08-25T03:21:07;18.70;99.90
7936;DHT22;4013;49.744;8.118;2022-08-25T03:23:34;18.70;99.90
7936;DHT22;4013;49.744;8.118;2022-08-25T03:26:01;18.70;99.90
7936;DHT22;4013;49.744;8.118;2022-08-25T03:28:45;18.70;99.90
7936;DHT22;4013;49.744;8.118;2022-08-25T03:31:12;18.80;99.90
7936;DHT22;4013;49.744;8.118;2022-08-25T03:33:41;18.90;99.90
7936;DHT22;4013;49.744;8.118;2022-08-25T03:36:08;18.90;99.90
7936;DHT22;4013;49.744;8.118;2022-08-25T03:38:36;18.80;99.90
7936;DHT22;4013;49.744;8.118;2022-08-25T03:41:11;18.70;99.90
7936;DHT22;4013;49.744;8.118;2022-08-25T03:43:39;18.50;99.90
7936;DHT22;4013;49.744;8.118;2022-08-25T03:46:06;18.50;99.90
7936;DHT22;4013;49.744;8.118;2022-08-25T03:48:33;18.40;99.90
7936;DHT22;4013;49.744;8.118;2022-08-25T03:51:01;18.50;99.90
7936;DHT22;4013;49.744;8.118;2022-08-25T03:53:28;18.60;99.90
7936;DHT22;4013;49.744;8.118;2022-08-25T03:55:55;18.70;99.90
7936;DHT22;4013;49.744;8.118;2022-08-25T03:58:22;18.70;99.90
7936;DHT22;4013;49.744;8.118;2022-08-25T04:00:49;18.80;99.90
7936;DHT22;4013;49.744;8.118;2022-08-25T04:03:17;18.80;99.90
7936;DHT22;4013;49.744;8.118;2022-08-25T04:05:44;18.90;99.90
7936;DHT22;4013;49.744;8.118;2022-08-25T04:08:13;18.70;99.90
7936;DHT22;4013;49.744;8.118;2022-08-25T04:10:40;18.70;99.90
7936;DHT22;4013;49.744;8.118;2022-08-25T04:13:07;18.60;99.90
7936;DHT22;4013;49.744;8.118;2022-08-25T04:15:34;18.50;99.90
7936;DHT22;4013;49.744;8.118;2022-08-25T04:18:01;18.40;99.90
7936;DHT22;4013;49.744;8.118;2022-08-25T04:20:29;18.30;99.90
7936;DHT22;4013;49.744;8.118;2022-08-25T04:22:56;18.30;99.90
7936;DHT22;4013;49.744;8.118;2022-08-25T04:25:26;18.20;99.90
7936;DHT22;4013;49.744;8.118;2022-08-25T04:27:53;18.10;99.90
7936;DHT22;4013;49.744;8.118;2022-08-25T04:30:20;18.10;99.90
7936;DHT22;4013;49.744;8.118;2022-08-25T04:32:47;18.10;99.90
7936;DHT22;4013;49.744;8.118;2022-08-25T04:35:15;18.10;99.90
7936;DHT22;4013;49.744;8.118;2022-08-25T04:37:42;18.10;99.90
7936;DHT22;4013;49.744;8.118;2022-08-25T04:40:10;18.10;99.90
7936;DHT22;4013;49.744;8.118;2022-08-25T04:42:38;18.20;99.90
7936;DHT22;4013;49.744;8.118;2022-08-25T04:45:06;18.20;99.90
7936;DHT22;4013;49.744;8.118;2022-08-25T04:47:36;18.10;99.90
7936;DHT22;4013;49.744;8.118;2022-08-25T04:50:03;18.10;99.90
7936;DHT22;4013;49.744;8.118;2022-08-25T04:52:30;18.10;99.90
7936;DHT22;4013;49.744;8.118;2022-08-25T04:54:57;18.10;99.90
7936;DHT22;4013;49.744;8.118;2022-08-25T04:57:25;18.10;99.90
7936;DHT22;4013;49.744;8.118;2022-08-25T04:59:53;18.10;99.90
7936;DHT22;4013;49.744;8.118;2022-08-25T05:02:21;18.10;99.90
7936;DHT22;4013;49.744;8.118;2022-08-25T05:04:50;18.00;99.90
7936;DHT22;4013;49.744;8.118;2022-08-25T05:07:17;18.00;99.90
7936;DHT22;4013;49.744;8.118;2022-08-25T05:09:44;18.00;99.90
7936;DHT22;4013;49.744;8.118;2022-08-25T05:12:11;18.10;99.90
7936;DHT22;4013;49.744;8.118;2022-08-25T05:14:38;18.10;99.90
7936;DHT22;4013;49.744;8.118;2022-08-25T05:17:06;18.20;99.90
7936;DHT22;4013;49.744;8.118;2022-08-25T05:19:33;18.20;99.90
7936;DHT22;4013;49.744;8.118;2022-08-25T05:22:01;18.30;99.90
7936;DHT22;4013;49.744;8.118;2022-08-25T05:24:29;18.30;99.90
7936;DHT22;4013;49.744;8.118;2022-08-25T05:26:56;18.40;99.90
7936;DHT22;4013;49.744;8.118;2022-08-25T05:29:23;18.40;99.90
7936;DHT22;4013;49.744;8.118;2022-08-25T05:31:51;18.60;99.90
7936;DHT22;4013;49.744;8.118;2022-08-25T05:34:20;18.60;99.90
7936;DHT22;4013;49.744;8.118;2022-08-25T05:36:47;18.70;99.90
7936;DHT22;4013;49.744;8.118;2022-08-25T05:39:15;18.80;99.90
7936;DHT22;4013;49.744;8.118;2022-08-25T05:41:42;18.80;99.90
7936;DHT22;4013;49.744;8.118;2022-08-25T05:44:09;18.90;99.90
7936;DHT22;4013;49.744;8.118;2022-08-25T05:46:37;19.00;99.90
7936;DHT22;4013;49.744;8.118;2022-08-25T05:49:04;19.10;99.90
7936;DHT22;4013;49.744;8.118;2022-08-25T05:51:32;19.20;99.90
7936;DHT22;4013;49.744;8.118;2022-08-25T05:53:59;19.30;99.90
7936;DHT22;4013;49.744;8.118;2022-08-25T05:56:26;19.40;99.90
7936;DHT22;4013;49.744;8.118;2022-08-25T05:58:53;19.60;99.90
7936;DHT22;4013;49.744;8.118;2022-08-25T06:01:23;19.80;99.90
7936;DHT22;4013;49.744;8.118;2022-08-25T06:04:08;19.90;99.90
7936;DHT22;4013;49.744;8.118;2022-08-25T06:06:37;20.10;99.90
7936;DHT22;4013;49.744;8.118;2022-08-25T06:09:04;20.30;99.90
7936;DHT22;4013;49.744;8.118;2022-08-25T06:11:34;20.50;99.90
7936;DHT22;4013;49.744;8.118;2022-08-25T06:14:00;20.60;99.90
7936;DHT22;4013;49.744;8.118;2022-08-25T06:16:28;20.80;99.90
7936;DHT22;4013;49.744;8.118;2022-08-25T06:18:54;21.00;99.90
7936;DHT22;4013;49.744;8.118;2022-08-25T06:21:21;21.10;99.90
7936;DHT22;4013;49.744;8.118;2022-08-25T06:23:50;21.20;99.90
7936;DHT22;4013;49.744;8.118;2022-08-25T06:26:17;21.40;99.90
7936;DHT22;4013;49.744;8.118;2022-08-25T06:28:44;21.50;99.90
7936;DHT22;4013;49.744;8.118;2022-08-25T06:31:11;21.70;99.90
7936;DHT22;4013;49.744;8.118;2022-08-25T06:33:38;21.80;99.90
7936;DHT22;4013;49.744;8.118;2022-08-25T06:36:06;22.00;99.90
7936;DHT22;4013;49.744;8.118;2022-08-25T06:38:33;22.10;99.90
7936;DHT22;4013;49.744;8.118;2022-08-25T06:41:02;22.20;99.90
7936;DHT22;4013;49.744;8.118;2022-08-25T06:43:30;22.30;99.90
7936;DHT22;4013;49.744;8.118;2022-08-25T06:45:58;22.30;99.90
7936;DHT22;4013;49.744;8.118;2022-08-25T06:48:33;22.40;99.90
7936;DHT22;4013;49.744;8.118;2022-08-25T06:50:59;22.50;99.90
7936;DHT22;4013;49.744;8.118;2022-08-25T06:53:30;22.50;99.90
7936;DHT22;4013;49.744;8.118;2022-08-25T06:55:57;22.50;99.90
7936;DHT22;4013;49.744;8.118;2022-08-25T06:58:26;22.50;99.90
7936;DHT22;4013;49.744;8.118;2022-08-25T07:00:53;22.70;99.90
7936;DHT22;4013;49.744;8.118;2022-08-25T07:03:20;22.70;99.90
7936;DHT22;4013;49.744;8.118;2022-08-25T07:05:50;22.90;99.90
7936;DHT22;4013;49.744;8.118;2022-08-25T07:08:17;22.90;99.90
7936;DHT22;4013;49.744;8.118;2022-08-25T07:10:45;22.90;99.90
7936;DHT22;4013;49.744;8.118;2022-08-25T07:13:12;22.90;99.90
7936;DHT22;4013;49.744;8.118;2022-08-25T07:15:41;22.90;99.90
7936;DHT22;4013;49.744;8.118;2022-08-25T07:18:08;23.00;99.90
7936;DHT22;4013;49.744;8.118;2022-08-25T07:20:36;23.00;99.90
7936;DHT22;4013;49.744;8.118;2022-08-25T07:23:02;23.20;99.90
7936;DHT22;4013;49.744;8.118;2022-08-25T07:25:29;23.20;99.90
7936;DHT22;4013;49.744;8.118;2022-08-25T07:27:57;23.30;99.90
7936;DHT22;4013;49.744;8.118;2022-08-25T07:30:24;23.50;99.90
7936;DHT22;4013;49.744;8.118;2022-08-25T07:32:53;23.50;99.90
7936;DHT22;4013;49.744;8.118;2022-08-25T07:35:20;23.60;99.90
7936;DHT22;4013;49.744;8.118;2022-08-25T07:37:51;23.60;99.90
7936;DHT22;4013;49.744;8.118;2022-08-25T07:40:23;23.70;99.90
7936;DHT22;4013;49.744;8.118;2022-08-25T07:42:52;23.80;99.90
7936;DHT22;4013;49.744;8.118;2022-08-25T07:45:20;23.90;99.90
7936;DHT22;4013;49.744;8.118;2022-08-25T07:47:56;24.10;99.90
7936;DHT22;4013;49.744;8.118;2022-08-25T07:50:24;24.20;99.90
7936;DHT22;4013;49.744;8.118;2022-08-25T07:52:51;24.30;99.90
7936;DHT22;4013;49.744;8.118;2022-08-25T07:55:18;24.40;99.90
7936;DHT22;4013;49.744;8.118;2022-08-25T07:57:46;24.50;99.90
7936;DHT22;4013;49.744;8.118;2022-08-25T08:00:14;24.60;99.90
7936;DHT22;4013;49.744;8.118;2022-08-25T08:02:42;24.70;99.90
7936;DHT22;4013;49.744;8.118;2022-08-25T08:05:12;24.70;99.90
7936;DHT22;4013;49.744;8.118;2022-08-25T08:07:40;24.70;99.90
7936;DHT22;4013;49.744;8.118;2022-08-25T08:10:09;24.70;99.90
7936;DHT22;4013;49.744;8.118;2022-08-25T08:12:37;24.80;99.90
7936;DHT22;4013;49.744;8.118;2022-08-25T08:15:05;24.90;99.90
7936;DHT22;4013;49.744;8.118;2022-08-25T08:17:32;25.00;99.90
7936;DHT22;4013;49.744;8.118;2022-08-25T08:19:59;25.00;99.90
7936;DHT22;4013;49.744;8.118;2022-08-25T08:22:30;25.10;99.90
7936;DHT22;4013;49.744;8.118;2022-08-25T08:24:57;25.20;99.90
7936;DHT22;4013;49.744;8.118;2022-08-25T08:27:24;25.20;99.90
7936;DHT22;4013;49.744;8.118;2022-08-25T08:29:51;25.30;99.90
7936;DHT22;4013;49.744;8.118;2022-08-25T08:32:19;25.30;99.90
7936;DHT22;4013;49.744;8.118;2022-08-25T08:34:46;25.30;99.90
7936;DHT22;4013;49.744;8.118;2022-08-25T08:37:14;25.40;99.90
7936;DHT22;4013;49.744;8.118;2022-08-25T08:39:42;25.40;99.90
7936;DHT22;4013;49.744;8.118;2022-08-25T08:42:21;25.50;99.90
7936;DHT22;4013;49.744;8.118;2022-08-25T08:45:05;25.50;99.90
7936;DHT22;4013;49.744;8.118;2022-08-25T08:47:58;25.60;99.90
7936;DHT22;4013;49.744;8.118;2022-08-25T08:50:31;25.60;99.90
7936;DHT22;4013;49.744;8.118;2022-08-25T08:53:03;25.60;99.90
7936;DHT22;4013;49.744;8.118;2022-08-25T08:55:37;25.60;99.90
7936;DHT22;4013;49.744;8.118;2022-08-25T08:58:08;25.70;99.90
7936;DHT22;4013;49.744;8.118;2022-08-25T09:00:39;25.70;99.90
7936;DHT22;4013;49.744;8.118;2022-08-25T09:03:10;25.80;99.90
7936;DHT22;4013;49.744;8.118;2022-08-25T09:05:44;25.90;99.90
7936;DHT22;4013;49.744;8.118;2022-08-25T09:08:13;25.90;99.90
7936;DHT22;4013;49.744;8.118;2022-08-25T09:10:52;26.00;99.90
7936;DHT22;4013;49.744;8.118;2022-08-25T09:13:32;26.10;99.90
7936;DHT22;4013;49.744;8.118;2022-08-25T09:16:08;26.10;99.90
7936;DHT22;4013;49.744;8.118;2022-08-25T09:19:02;26.10;99.90
7936;DHT22;4013;49.744;8.118;2022-08-25T09:21:36;26.20;99.90
7936;DHT22;4013;49.744;8.118;2022-08-25T09:24:18;26.20;99.90
7936;DHT22;4013;49.744;8.118;2022-08-25T09:26:59;26.30;99.90
7936;DHT22;4013;49.744;8.118;2022-08-25T09:29:35;26.40;99.90
7936;DHT22;4013;49.744;8.118;2022-08-25T09:32:07;26.40;99.90
7936;DHT22;4013;49.744;8.118;2022-08-25T09:34:36;26.50;99.90
7936;DHT22;4013;49.744;8.118;2022-08-25T09:37:03;26.60;99.90
7936;DHT22;4013;49.744;8.118;2022-08-25T09:39:30;26.60;99.90
7936;DHT22;4013;49.744;8.118;2022-08-25T09:41:59;26.60;99.90
7936;DHT22;4013;49.744;8.118;2022-08-25T09:44:27;26.60;99.90
7936;DHT22;4013;49.744;8.118;2022-08-25T09:46:59;26.60;99.90
7936;DHT22;4013;49.744;8.118;2022-08-25T09:49:33;26.60;99.90
7936;DHT22;4013;49.744;8.118;2022-08-25T09:52:23;26.70;99.90
7936;DHT22;4013;49.744;8.118;2022-08-25T09:54:52;26.60;99.90
7936;DHT22;4013;49.744;8.118;2022-08-25T09:57:35;26.60;99.90
7936;DHT22;4013;49.744;8.118;2022-08-25T10:00:13;26.60;99.90
7936;DHT22;4013;49.744;8.118;2022-08-25T10:02:41;26.70;99.90
7936;DHT22;4013;49.744;8.118;2022-08-25T10:05:20;26.80;99.90
7936;DHT22;4013;49.744;8.118;2022-08-25T10:07:50;26.90;99.90
7936;DHT22;4013;49.744;8.118;2022-08-25T10:10:24;26.90;99.90
7936;DHT22;4013;49.744;8.118;2022-08-25T10:12:53;27.00;99.90
7936;DHT22;4013;49.744;8.118;2022-08-25T10:15:26;27.00;99.90
7936;DHT22;4013;49.744;8.118;2022-08-25T10:17:53;27.10;99.90
7936;DHT22;4013;49.744;8.118;2022-08-25T10:20:22;27.20;99.90
7936;DHT22;4013;49.744;8.118;2022-08-25T10:22:49;27.30;99.90
7936;DHT22;4013;49.744;8.118;2022-08-25T10:25:23;27.40;99.90
7936;DHT22;4013;49.744;8.118;2022-08-25T10:28:03;27.40;99.90
7936;DHT22;4013;49.744;8.118;2022-08-25T10:30:39;27.50;99.90
7936;DHT22;4013;49.744;8.118;2022-08-25T10:33:17;27.50;99.90
7936;DHT22;4013;49.744;8.118;2022-08-25T10:35:56;27.30;99.90
7936;DHT22;4013;49.744;8.118;2022-08-25T10:38:37;27.10;99.90
7936;DHT22;4013;49.744;8.118;2022-08-25T10:41:20;27.00;99.90
7936;DHT22;4013;49.744;8.118;2022-08-25T10:44:02;27.00;99.90
7936;DHT22;4013;49.744;8.118;2022-08-25T10:47:00;26.90;99.90
7936;DHT22;4013;49.744;8.118;2022-08-25T10:49:35;26.90;99.90
7936;DHT22;4013;49.744;8.118;2022-08-25T10:52:09;27.20;99.90
7936;DHT22;4013;49.744;8.118;2022-08-25T10:54:52;27.40;99.90
7936;DHT22;4013;49.744;8.118;2022-08-25T10:57:34;27.30;99.90
7936;DHT22;4013;49.744;8.118;2022-08-25T11:00:09;27.40;99.90
7936;DHT22;4013;49.744;8.118;2022-08-25T11:02:59;27.60;99.90
7936;DHT22;4013;49.744;8.118;2022-08-25T11:05:31;27.70;99.90
7936;DHT22;4013;49.744;8.118;2022-08-25T11:08:07;27.90;99.90
7936;DHT22;4013;49.744;8.118;2022-08-25T11:10:42;27.90;99.90
7936;DHT22;4013;49.744;8.118;2022-08-25T11:13:15;28.00;99.90
7936;DHT22;4013;49.744;8.118;2022-08-25T11:15:51;28.10;99.90
7936;DHT22;4013;49.744;8.118;2022-08-25T11:18:19;28.20;99.90
7936;DHT22;4013;49.744;8.118;2022-08-25T11:20:53;28.20;99.90
7936;DHT22;4013;49.744;8.118;2022-08-25T11:23:24;28.10;99.90
7936;DHT22;4013;49.744;8.118;2022-08-25T11:25:59;28.10;99.90
7936;DHT22;4013;49.744;8.118;2022-08-25T11:28:34;28.20;99.90
7936;DHT22;4013;49.744;8.118;2022-08-25T11:31:08;28.30;99.90
7936;DHT22;4013;49.744;8.118;2022-08-25T11:33:35;28.40;99.90
7936;DHT22;4013;49.744;8.118;2022-08-25T11:36:09;28.50;99.90
7936;DHT22;4013;49.744;8.118;2022-08-25T11:38:47;28.70;99.90
7936;DHT22;4013;49.744;8.118;2022-08-25T11:41:26;28.60;99.90
7936;DHT22;4013;49.744;8.118;2022-08-25T11:44:15;28.40;99.60
7936;DHT22;4013;49.744;8.118;2022-08-25T11:46:55;28.30;99.90
7936;DHT22;4013;49.744;8.118;2022-08-25T11:49:44;28.30;99.70
7936;DHT22;4013;49.744;8.118;2022-08-25T11:55:21;28.10;97.00
7936;DHT22;4013;49.744;8.118;2022-08-25T11:58:12;28.00;97.10
7936;DHT22;4013;49.744;8.118;2022-08-25T12:00:40;28.10;96.80
7936;DHT22;4013;49.744;8.118;2022-08-25T12:06:17;28.50;97.30
7936;DHT22;4013;49.744;8.118;2022-08-25T12:08:50;28.70;95.10
7936;DHT22;4013;49.744;8.118;2022-08-25T12:11:52;28.80;95.30
7936;DHT22;4013;49.744;8.118;2022-08-25T12:14:43;28.90;95.70
7936;DHT22;4013;49.744;8.118;2022-08-25T12:17:26;29.00;95.00
7936;DHT22;4013;49.744;8.118;2022-08-25T12:20:03;29.00;93.70
7936;DHT22;4013;49.744;8.118;2022-08-25T12:22:54;29.10;94.10
7936;DHT22;4013;49.744;8.118;2022-08-25T12:28:42;29.20;94.40
7936;DHT22;4013;49.744;8.118;2022-08-25T12:31:30;29.20;93.20
7936;DHT22;4013;49.744;8.118;2022-08-25T12:34:14;29.30;94.00
7936;DHT22;4013;49.744;8.118;2022-08-25T12:36:55;29.50;92.40
7936;DHT22;4013;49.744;8.118;2022-08-25T12:39:30;29.70;92.10
7936;DHT22;4013;49.744;8.118;2022-08-25T12:42:00;29.80;91.30
7936;DHT22;4013;49.744;8.118;2022-08-25T12:44:38;29.70;89.80
7936;DHT22;4013;49.744;8.118;2022-08-25T12:47:24;29.80;89.00
7936;DHT22;4013;49.744;8.118;2022-08-25T12:49:53;29.80;89.00
7936;DHT22;4013;49.744;8.118;2022-08-25T12:52:40;30.00;89.70
7936;DHT22;4013;49.744;8.118;2022-08-25T12:55:12;30.10;87.70
7936;DHT22;4013;49.744;8.118;2022-08-25T12:57:42;30.10;88.10
7936;DHT22;4013;49.744;8.118;2022-08-25T13:00:15;30.10;87.50
7936;DHT22;4013;49.744;8.118;2022-08-25T13:06:07;30.10;86.50
7936;DHT22;4013;49.744;8.118;2022-08-25T13:11:44;30.40;85.40
7936;DHT22;4013;49.744;8.118;2022-08-25T13:14:16;30.30;84.70
7936;DHT22;4013;49.744;8.118;2022-08-25T13:16:52;30.30;84.00
7936;DHT22;4013;49.744;8.118;2022-08-25T13:19:20;30.20;82.90
7936;DHT22;4013;49.744;8.118;2022-08-25T13:21:47;30.10;83.70
7936;DHT22;4013;49.744;8.118;2022-08-25T13:24:18;30.10;82.80
7936;DHT22;4013;49.744;8.118;2022-08-25T13:26:52;30.10;84.20
7936;DHT22;4013;49.744;8.118;2022-08-25T13:29:22;30.20;84.20
7936;DHT22;4013;49.744;8.118;2022-08-25T13:31:53;30.30;83.20
7936;DHT22;4013;49.744;8.118;2022-08-25T13:34:23;30.20;83.20
7936;DHT22;4013;49.744;8.118;2022-08-25T13:36:50;30.30;83.50
7936;DHT22;4013;49.744;8.118;2022-08-25T13:39:35;30.30;81.60
7936;DHT22;4013;49.744;8.118;2022-08-25T13:42:06;30.20;81.60
7936;DHT22;4013;49.744;8.118;2022-08-25T13:44:37;30.20;82.10
7936;DHT22;4013;49.744;8.118;2022-08-25T13:47:06;30.30;82.80
7936;DHT22;4013;49.744;8.118;2022-08-25T13:49:34;30.40;82.70
7936;DHT22;4013;49.744;8.118;2022-08-25T13:52:01;30.40;80.70
7936;DHT22;4013;49.744;8.118;2022-08-25T13:54:30;30.40;80.60
7936;DHT22;4013;49.744;8.118;2022-08-25T13:57:06;30.20;79.90
7936;DHT22;4013;49.744;8.118;2022-08-25T13:59:36;30.20;80.00
7936;DHT22;4013;49.744;8.118;2022-08-25T14:02:05;30.20;80.00
7936;DHT22;4013;49.744;8.118;2022-08-25T14:04:45;30.30;80.40
7936;DHT22;4013;49.744;8.118;2022-08-25T14:07:24;30.30;79.00
7936;DHT22;4013;49.744;8.118;2022-08-25T14:09:54;30.20;81.70
7936;DHT22;4013;49.744;8.118;2022-08-25T14:12:33;30.40;80.40
7936;DHT22;4013;49.744;8.118;2022-08-25T14:15:08;30.60;78.80
7936;DHT22;4013;49.744;8.118;2022-08-25T14:17:36;30.70;79.80
7936;DHT22;4013;49.744;8.118;2022-08-25T14:20:06;30.70;78.80
7936;DHT22;4013;49.744;8.118;2022-08-25T14:22:40;30.70;78.40
7936;DHT22;4013;49.744;8.118;2022-08-25T14:25:07;30.70;79.40
7936;DHT22;4013;49.744;8.118;2022-08-25T14:27:41;30.50;77.20
7936;DHT22;4013;49.744;8.118;2022-08-25T14:30:09;30.40;79.20
7936;DHT22;4013;49.744;8.118;2022-08-25T14:32:36;30.10;77.90
7936;DHT22;4013;49.744;8.118;2022-08-25T14:35:04;30.20;79.40
7936;DHT22;4013;49.744;8.118;2022-08-25T14:37:31;30.20;78.80
7936;DHT22;4013;49.744;8.118;2022-08-25T14:39:58;30.10;79.20
7936;DHT22;4013;49.744;8.118;2022-08-25T14:42:25;30.00;78.50
7936;DHT22;4013;49.744;8.118;2022-08-25T14:44:53;29.80;79.50
7936;DHT22;4013;49.744;8.118;2022-08-25T14:47:20;29.80;79.40
7936;DHT22;4013;49.744;8.118;2022-08-25T14:49:47;29.70;78.80
7936;DHT22;4013;49.744;8.118;2022-08-25T14:52:18;29.60;79.60
7936;DHT22;4013;49.744;8.118;2022-08-25T14:54:46;29.50;79.80
7936;DHT22;4013;49.744;8.118;2022-08-25T14:57:13;29.70;79.50
7936;DHT22;4013;49.744;8.118;2022-08-25T14:59:40;29.70;80.10
7936;DHT22;4013;49.744;8.118;2022-08-25T15:02:10;29.80;79.80
7936;DHT22;4013;49.744;8.118;2022-08-25T15:04:38;29.80;79.60
7936;DHT22;4013;49.744;8.118;2022-08-25T15:07:05;29.90;79.90
7936;DHT22;4013;49.744;8.118;2022-08-25T15:09:52;30.00;79.30
7936;DHT22;4013;49.744;8.118;2022-08-25T15:12:18;30.00;78.60
7936;DHT22;4013;49.744;8.118;2022-08-25T15:14:47;30.00;78.60
7936;DHT22;4013;49.744;8.118;2022-08-25T15:17:16;29.90;79.30
7936;DHT22;4013;49.744;8.118;2022-08-25T15:19:43;29.90;78.60
7936;DHT22;4013;49.744;8.118;2022-08-25T15:22:10;29.90;77.90
7936;DHT22;4013;49.744;8.118;2022-08-25T15:24:37;29.80;78.10
7936;DHT22;4013;49.744;8.118;2022-08-25T15:27:07;29.80;78.10
7936;DHT22;4013;49.744;8.118;2022-08-25T15:29:34;29.80;78.70
7936;DHT22;4013;49.744;8.118;2022-08-25T15:32:04;29.80;78.30
7936;DHT22;4013;49.744;8.118;2022-08-25T15:34:34;29.80;79.00
7936;DHT22;4013;49.744;8.118;2022-08-25T15:37:06;29.80;77.80
7936;DHT22;4013;49.744;8.118;2022-08-25T15:39:34;29.70;78.10
7936;DHT22;4013;49.744;8.118;2022-08-25T15:42:01;29.70;78.40
7936;DHT22;4013;49.744;8.118;2022-08-25T15:44:32;29.70;78.40
7936;DHT22;4013;49.744;8.118;2022-08-25T15:46:59;29.70;77.90
7936;DHT22;4013;49.744;8.118;2022-08-25T15:49:27;29.80;78.50
7936;DHT22;4013;49.744;8.118;2022-08-25T15:51:56;29.80;78.80
7936;DHT22;4013;49.744;8.118;2022-08-25T15:54:24;29.80;78.40
7936;DHT22;4013;49.744;8.118;2022-08-25T15:56:51;29.80;78.70
7936;DHT22;4013;49.744;8.118;2022-08-25T15:59:19;29.80;77.20
7936;DHT22;4013;49.744;8.118;2022-08-25T16:01:46;29.70;76.70
7936;DHT22;4013;49.744;8.118;2022-08-25T16:04:13;29.70;78.00
7936;DHT22;4013;49.744;8.118;2022-08-25T16:06:40;29.70;77.60
7936;DHT22;4013;49.744;8.118;2022-08-25T16:09:08;29.80;78.00
7936;DHT22;4013;49.744;8.118;2022-08-25T16:11:35;29.70;78.30
7936;DHT22;4013;49.744;8.118;2022-08-25T16:14:04;29.60;79.00
7936;DHT22;4013;49.744;8.118;2022-08-25T16:16:31;29.60;78.10
7936;DHT22;4013;49.744;8.118;2022-08-25T16:18:58;29.70;78.30
7936;DHT22;4013;49.744;8.118;2022-08-25T16:21:28;29.60;78.00
7936;DHT22;4013;49.744;8.118;2022-08-25T16:23:57;29.60;78.70
7936;DHT22;4013;49.744;8.118;2022-08-25T16:26:25;29.60;78.60
7936;DHT22;4013;49.744;8.118;2022-08-25T16:28:52;29.60;77.70
7936;DHT22;4013;49.744;8.118;2022-08-25T16:31:19;29.60;77.70
7936;DHT22;4013;49.744;8.118;2022-08-25T16:33:47;29.60;77.50
7936;DHT22;4013;49.744;8.118;2022-08-25T16:36:16;29.60;77.90
7936;DHT22;4013;49.744;8.118;2022-08-25T16:38:44;29.60;77.80